sensor_id;sensor_type;location;lat;lon;timestamp;temperature;humidity
36186;DHT22;22228;53.222;7.446;2023-08-06T00:00:28;13.60;99.90
36186;DHT22;22228;53.222;7.446;2023-08-06T00:02:49;13.60;99.90
36186;DHT22;22228;53.222;7.446;2023-08-06T00:05:10;13.50;99.90
36186;DHT22;22228;53.222;7.446;2023-08-06T00:07:30;13.50;99.90
36186;DHT22;22228;53.222;7.446;2023-08-06T00:09:51;13.50;99.90
36186;DHT22;22228;53.222;7.446;2023-08-06T00:12:13;13.50;99.90
36186;DHT22;22228;53.222;7.446;2023-08-06T00:14:33;13.50;99.90
36186;DHT22;22228;53.222;7.446;2023-08-06T03:01:58;13.50;99.90
36186;DHT22;22228;53.222;7.446;2023-08-06T03:04:27;13.50;99.90
36186;DHT22;22228;53.222;7.446;2023-08-06T03:06:55;13.60;99.90
36186;DHT22;22228;53.222;7.446;2023-08-06T03:09:20;13.60;99.90
36186;DHT22;22228;53.222;7.446;2023-08-06T03:11:42;13.60;99.90
36186;DHT22;22228;53.222;7.446;2023-08-06T03:14:06;13.60;99.90
36186;DHT22;22228;53.222;7.446;2023-08-06T03:16:27;13.60;99.90
36186;DHT22;22228;53.222;7.446;2023-08-06T03:18:49;13.70;99.90
36186;DHT22;22228;53.222;7.446;2023-08-06T03:21:10;13.70;99.90
36186;DHT22;22228;53.222;7.446;2023-08-06T03:23:31;13.70;99.90
36186;DHT22;22228;53.222;7.446;2023-08-06T03:25:52;13.70;99.90
36186;DHT22;22228;53.222;7.446;2023-08-06T03:28:12;13.60;99.90
36186;DHT22;22228;53.222;7.446;2023-08-06T03:30:34;13.60;99.90
36186;DHT22;22228;53.222;7.446;2023-08-06T03:32:55;13.70;99.90
36186;DHT22;22228;53.222;7.446;2023-08-06T03:35:17;13.70;99.90
36186;DHT22;22228;53.222;7.446;2023-08-06T03:37:38;13.70;99.90
36186;DHT22;22228;53.222;7.446;2023-08-06T03:39:59;13.70;99.90
36186;DHT22;22228;53.222;7.446;2023-08-06T03:42:20;13.70;99.90
36186;DHT22;22228;53.222;7.446;2023-08-06T03:44:40;13.70;99.90
36186;DHT22;22228;53.222;7.446;2023-08-06T03:47:03;13.70;99.90
36186;DHT22;22228;53.222;7.446;2023-08-06T03:49:24;13.70;99.90
36186;DHT22;22228;53.222;7.446;2023-08-06T03:51:45;13.70;99.90
36186;DHT22;22228;53.222;7.446;2023-08-06T03:54:06;13.70;99.90
36186;DHT22;22228;53.222;7.446;2023-08-06T03:56:26;13.70;99.90
36186;DHT22;22228;53.222;7.446;2023-08-06T03:58:47;13.70;99.90
36186;DHT22;22228;53.222;7.446;2023-08-06T04:01:08;13.70;99.90
36186;DHT22;22228;53.222;7.446;2023-08-06T04:03:35;13.60;99.90
36186;DHT22;22228;53.222;7.446;2023-08-06T04:05:55;13.60;99.90
36186;DHT22;22228;53.222;7.446;2023-08-06T04:08:17;13.60;99.90
36186;DHT22;22228;53.222;7.446;2023-08-06T04:10:37;13.60;99.90
36186;DHT22;22228;53.222;7.446;2023-08-06T04:12:58;13.60;99.90
36186;DHT22;22228;53.222;7.446;2023-08-06T04:15:18;13.60;99.90
36186;DHT22;22228;53.222;7.446;2023-08-06T04:17:39;13.60;99.90
36186;DHT22;22228;53.222;7.446;2023-08-06T04:20:00;13.60;99.90
36186;DHT22;22228;53.222;7.446;2023-08-06T04:22:21;13.60;99.90
36186;DHT22;22228;53.222;7.446;2023-08-06T04:24:43;13.60;99.90
36186;DHT22;22228;53.222;7.446;2023-08-06T04:27:04;13.60;99.90
36186;DHT22;22228;53.222;7.446;2023-08-06T04:29:25;13.50;99.90
36186;DHT22;22228;53.222;7.446;2023-08-06T04:31:46;13.60;99.90
36186;DHT22;22228;53.222;7.446;2023-08-06T04:34:07;13.60;99.90
36186;DHT22;22228;53.222;7.446;2023-08-06T04:36:30;13.60;99.90
36186;DHT22;22228;53.222;7.446;2023-08-06T04:38:50;13.60;99.90
36186;DHT22;22228;53.222;7.446;2023-08-06T04:41:12;13.60;99.90
36186;DHT22;22228;53.222;7.446;2023-08-06T04:43:33;13.60;99.90
36186;DHT22;22228;53.222;7.446;2023-08-06T04:45:54;13.60;99.90
36186;DHT22;22228;53.222;7.446;2023-08-06T04:48:15;13.60;99.90
36186;DHT22;22228;53.222;7.446;2023-08-06T04:50:35;13.60;99.90
36186;DHT22;22228;53.222;7.446;2023-08-06T04:52:56;13.60;99.90
36186;DHT22;22228;53.222;7.446;2023-08-06T04:55:16;13.60;99.90
36186;DHT22;22228;53.222;7.446;2023-08-06T04:57:38;13.70;99.90
36186;DHT22;22228;53.222;7.446;2023-08-06T04:59:58;13.80;99.90
36186;DHT22;22228;53.222;7.446;2023-08-06T05:02:19;13.80;99.90
36186;DHT22;22228;53.222;7.446;2023-08-06T05:04:39;13.90;99.90
36186;DHT22;22228;53.222;7.446;2023-08-06T05:07:00;13.90;99.90
36186;DHT22;22228;53.222;7.446;2023-08-06T05:09:21;13.90;99.90
36186;DHT22;22228;53.222;7.446;2023-08-06T05:11:41;14.00;99.90
36186;DHT22;22228;53.222;7.446;2023-08-06T05:14:03;14.00;99.90
36186;DHT22;22228;53.222;7.446;2023-08-06T05:16:23;14.00;99.90
36186;DHT22;22228;53.222;7.446;2023-08-06T05:18:44;14.10;99.90
36186;DHT22;22228;53.222;7.446;2023-08-06T05:21:04;14.10;99.90
36186;DHT22;22228;53.222;7.446;2023-08-06T05:23:25;14.10;99.90
36186;DHT22;22228;53.222;7.446;2023-08-06T05:25:45;14.10;99.90
36186;DHT22;22228;53.222;7.446;2023-08-06T05:28:06;14.20;99.90
36186;DHT22;22228;53.222;7.446;2023-08-06T05:30:28;14.10;99.90
36186;DHT22;22228;53.222;7.446;2023-08-06T05:32:48;14.20;99.90
36186;DHT22;22228;53.222;7.446;2023-08-06T05:35:09;14.10;99.90
36186;DHT22;22228;53.222;7.446;2023-08-06T05:37:29;14.20;99.90
36186;DHT22;22228;53.222;7.446;2023-08-06T05:39:50;14.20;99.90
36186;DHT22;22228;53.222;7.446;2023-08-06T05:42:10;14.30;99.90
36186;DHT22;22228;53.222;7.446;2023-08-06T05:44:32;14.40;99.90
36186;DHT22;22228;53.222;7.446;2023-08-06T05:46:54;14.40;99.90
36186;DHT22;22228;53.222;7.446;2023-08-06T05:49:15;14.40;99.90
36186;DHT22;22228;53.222;7.446;2023-08-06T05:51:35;14.50;99.90
36186;DHT22;22228;53.222;7.446;2023-08-06T05:53:56;14.60;99.90
36186;DHT22;22228;53.222;7.446;2023-08-06T05:56:16;14.60;99.90
36186;DHT22;22228;53.222;7.446;2023-08-06T05:58:37;14.60;99.90
36186;DHT22;22228;53.222;7.446;2023-08-06T06:00:57;14.70;99.90
36186;DHT22;22228;53.222;7.446;2023-08-06T06:03:19;14.80;99.90
36186;DHT22;22228;53.222;7.446;2023-08-06T06:05:40;14.80;99.90
36186;DHT22;22228;53.222;7.446;2023-08-06T06:08:00;14.80;99.90
36186;DHT22;22228;53.222;7.446;2023-08-06T06:10:21;14.90;99.90
36186;DHT22;22228;53.222;7.446;2023-08-06T06:12:41;14.90;99.90
36186;DHT22;22228;53.222;7.446;2023-08-06T06:15:03;15.00;99.90
36186;DHT22;22228;53.222;7.446;2023-08-06T06:17:24;15.00;99.90
36186;DHT22;22228;53.222;7.446;2023-08-06T06:19:46;15.00;99.90
36186;DHT22;22228;53.222;7.446;2023-08-06T06:22:06;15.00;99.90
36186;DHT22;22228;53.222;7.446;2023-08-06T06:24:27;15.10;99.90
36186;DHT22;22228;53.222;7.446;2023-08-06T06:26:47;15.10;99.90
36186;DHT22;22228;53.222;7.446;2023-08-06T06:29:08;15.10;99.90
36186;DHT22;22228;53.222;7.446;2023-08-06T06:31:30;15.20;99.90
36186;DHT22;22228;53.222;7.446;2023-08-06T06:33:50;15.40;99.90
36186;DHT22;22228;53.222;7.446;2023-08-06T06:36:14;15.50;99.90
36186;DHT22;22228;53.222;7.446;2023-08-06T06:38:34;15.70;99.90
36186;DHT22;22228;53.222;7.446;2023-08-06T06:40:55;15.80;99.90
36186;DHT22;22228;53.222;7.446;2023-08-06T06:43:16;15.90;99.90
36186;DHT22;22228;53.222;7.446;2023-08-06T06:45:36;16.00;99.90
36186;DHT22;22228;53.222;7.446;2023-08-06T06:47:57;16.10;99.90
36186;DHT22;22228;53.222;7.446;2023-08-06T06:50:19;16.20;99.90
36186;DHT22;22228;53.222;7.446;2023-08-06T06:52:41;16.20;99.90
36186;DHT22;22228;53.222;7.446;2023-08-06T06:55:02;16.30;99.90
36186;DHT22;22228;53.222;7.446;2023-08-06T06:57:23;16.40;99.90
36186;DHT22;22228;53.222;7.446;2023-08-06T06:59:43;16.60;99.90
36186;DHT22;22228;53.222;7.446;2023-08-06T07:02:04;16.80;99.90
36186;DHT22;22228;53.222;7.446;2023-08-06T07:04:25;16.90;99.90
36186;DHT22;22228;53.222;7.446;2023-08-06T07:06:47;17.00;99.90
36186;DHT22;22228;53.222;7.446;2023-08-06T07:09:09;17.10;99.90
36186;DHT22;22228;53.222;7.446;2023-08-06T07:11:29;17.00;99.90
36186;DHT22;22228;53.222;7.446;2023-08-06T07:13:56;17.20;99.90
36186;DHT22;22228;53.222;7.446;2023-08-06T07:16:16;17.30;99.90
36186;DHT22;22228;53.222;7.446;2023-08-06T07:18:37;17.50;99.90
36186;DHT22;22228;53.222;7.446;2023-08-06T07:20:58;17.60;99.90
36186;DHT22;22228;53.222;7.446;2023-08-06T07:23:20;17.80;99.90
36186;DHT22;22228;53.222;7.446;2023-08-06T07:25:42;17.90;99.90
36186;DHT22;22228;53.222;7.446;2023-08-06T07:28:03;18.10;99.90
36186;DHT22;22228;53.222;7.446;2023-08-06T07:30:24;18.30;99.90
36186;DHT22;22228;53.222;7.446;2023-08-06T07:32:44;18.40;99.90
36186;DHT22;22228;53.222;7.446;2023-08-06T07:35:06;18.30;99.90
36186;DHT22;22228;53.222;7.446;2023-08-06T07:37:28;18.40;99.90
36186;DHT22;22228;53.222;7.446;2023-08-06T07:39:49;18.50;99.90
36186;DHT22;22228;53.222;7.446;2023-08-06T07:42:11;18.40;99.90
36186;DHT22;22228;53.222;7.446;2023-08-06T07:44:32;18.30;99.90
36186;DHT22;22228;53.222;7.446;2023-08-06T07:46:52;18.30;99.90
36186;DHT22;22228;53.222;7.446;2023-08-06T07:49:13;18.20;99.90
36186;DHT22;22228;53.222;7.446;2023-08-06T07:51:33;18.10;99.90
36186;DHT22;22228;53.222;7.446;2023-08-06T07:53:54;17.90;99.90
36186;DHT22;22228;53.222;7.446;2023-08-06T07:56:15;17.90;99.90
36186;DHT22;22228;53.222;7.446;2023-08-06T07:58:36;17.80;99.90
36186;DHT22;22228;53.222;7.446;2023-08-06T08:00:57;17.70;99.90
36186;DHT22;22228;53.222;7.446;2023-08-06T08:03:18;17.70;99.90
36186;DHT22;22228;53.222;7.446;2023-08-06T08:05:38;17.70;99.90
36186;DHT22;22228;53.222;7.446;2023-08-06T08:07:59;17.70;99.90
36186;DHT22;22228;53.222;7.446;2023-08-06T08:10:19;17.80;99.90
36186;DHT22;22228;53.222;7.446;2023-08-06T08:12:40;17.70;99.90
36186;DHT22;22228;53.222;7.446;2023-08-06T08:15:04;17.80;99.90
36186;DHT22;22228;53.222;7.446;2023-08-06T08:17:24;17.80;99.90
36186;DHT22;22228;53.222;7.446;2023-08-06T08:19:45;17.80;99.90
36186;DHT22;22228;53.222;7.446;2023-08-06T08:22:05;17.90;99.90
36186;DHT22;22228;53.222;7.446;2023-08-06T08:24:26;18.00;99.90
36186;DHT22;22228;53.222;7.446;2023-08-06T08:26:46;17.90;99.90
36186;DHT22;22228;53.222;7.446;2023-08-06T08:29:06;17.90;99.90
36186;DHT22;22228;53.222;7.446;2023-08-06T08:31:28;18.00;99.90
36186;DHT22;22228;53.222;7.446;2023-08-06T08:33:49;18.10;99.90
36186;DHT22;22228;53.222;7.446;2023-08-06T08:36:09;18.20;99.90
36186;DHT22;22228;53.222;7.446;2023-08-06T08:38:30;18.30;99.90
36186;DHT22;22228;53.222;7.446;2023-08-06T08:40:52;18.40;99.90
36186;DHT22;22228;53.222;7.446;2023-08-06T08:43:14;18.50;99.90
36186;DHT22;22228;53.222;7.446;2023-08-06T08:45:36;18.50;99.90
36186;DHT22;22228;53.222;7.446;2023-08-06T08:48:00;18.60;99.90
36186;DHT22;22228;53.222;7.446;2023-08-06T08:50:21;18.80;99.90
36186;DHT22;22228;53.222;7.446;2023-08-06T08:52:42;18.90;99.90
36186;DHT22;22228;53.222;7.446;2023-08-06T08:55:05;19.00;99.90
36186;DHT22;22228;53.222;7.446;2023-08-06T08:57:26;19.10;99.90
36186;DHT22;22228;53.222;7.446;2023-08-06T08:59:47;19.30;99.90
36186;DHT22;22228;53.222;7.446;2023-08-06T09:02:10;19.50;99.90
36186;DHT22;22228;53.222;7.446;2023-08-06T09:04:32;19.50;99.90
36186;DHT22;22228;53.222;7.446;2023-08-06T09:06:54;19.50;99.90
36186;DHT22;22228;53.222;7.446;2023-08-06T09:09:20;19.50;99.90
36186;DHT22;22228;53.222;7.446;2023-08-06T09:11:43;19.50;99.90
36186;DHT22;22228;53.222;7.446;2023-08-06T09:14:04;19.60;99.90
36186;DHT22;22228;53.222;7.446;2023-08-06T09:16:26;19.70;99.90
36186;DHT22;22228;53.222;7.446;2023-08-06T09:18:46;19.90;99.90
36186;DHT22;22228;53.222;7.446;2023-08-06T09:21:13;19.90;99.90
36186;DHT22;22228;53.222;7.446;2023-08-06T09:23:34;19.90;99.90
36186;DHT22;22228;53.222;7.446;2023-08-06T09:25:54;19.80;99.90
36186;DHT22;22228;53.222;7.446;2023-08-06T09:28:15;19.90;99.90
36186;DHT22;22228;53.222;7.446;2023-08-06T09:30:37;19.80;92.30
36186;DHT22;22228;53.222;7.446;2023-08-06T09:32:58;19.70;1.00
36186;DHT22;22228;53.222;7.446;2023-08-06T09:35:19;19.60;1.00
36186;DHT22;22228;53.222;7.446;2023-08-06T09:37:40;19.70;1.00
36186;DHT22;22228;53.222;7.446;2023-08-06T09:40:01;19.80;1.00
36186;DHT22;22228;53.222;7.446;2023-08-06T09:42:21;19.90;1.00
36186;DHT22;22228;53.222;7.446;2023-08-06T09:44:42;20.10;1.00
36186;DHT22;22228;53.222;7.446;2023-08-06T09:47:03;20.40;1.00
36186;DHT22;22228;53.222;7.446;2023-08-06T09:49:26;20.60;1.00
36186;DHT22;22228;53.222;7.446;2023-08-06T09:51:47;20.70;1.00
36186;DHT22;22228;53.222;7.446;2023-08-06T09:54:12;20.90;1.00
36186;DHT22;22228;53.222;7.446;2023-08-06T09:56:33;21.20;1.00
36186;DHT22;22228;53.222;7.446;2023-08-06T09:58:56;21.10;1.00
36186;DHT22;22228;53.222;7.446;2023-08-06T10:01:18;20.90;1.00
36186;DHT22;22228;53.222;7.446;2023-08-06T10:03:39;20.70;1.00
36186;DHT22;22228;53.222;7.446;2023-08-06T10:06:00;20.80;1.00
36186;DHT22;22228;53.222;7.446;2023-08-06T10:08:25;20.70;1.00
36186;DHT22;22228;53.222;7.446;2023-08-06T10:10:47;20.80;1.00
36186;DHT22;22228;53.222;7.446;2023-08-06T10:13:08;21.00;1.00
36186;DHT22;22228;53.222;7.446;2023-08-06T10:15:32;21.30;1.00
36186;DHT22;22228;53.222;7.446;2023-08-06T10:17:56;21.70;1.00
36186;DHT22;22228;53.222;7.446;2023-08-06T10:20:17;22.10;1.00
36186;DHT22;22228;53.222;7.446;2023-08-06T10:22:42;22.40;1.00
36186;DHT22;22228;53.222;7.446;2023-08-06T10:25:04;22.60;1.00
36186;DHT22;22228;53.222;7.446;2023-08-06T10:27:31;22.70;1.00
36186;DHT22;22228;53.222;7.446;2023-08-06T10:29:52;22.70;1.00
36186;DHT22;22228;53.222;7.446;2023-08-06T10:32:12;22.70;1.00
36186;DHT22;22228;53.222;7.446;2023-08-06T10:34:54;22.70;1.00
36186;DHT22;22228;53.222;7.446;2023-08-06T10:37:16;22.80;1.00
36186;DHT22;22228;53.222;7.446;2023-08-06T10:39:36;22.80;1.00
36186;DHT22;22228;53.222;7.446;2023-08-06T10:41:57;23.10;1.00
36186;DHT22;22228;53.222;7.446;2023-08-06T10:44:18;23.70;1.00
36186;DHT22;22228;53.222;7.446;2023-08-06T10:46:39;24.10;1.00
36186;DHT22;22228;53.222;7.446;2023-08-06T10:49:00;24.30;1.00
36186;DHT22;22228;53.222;7.446;2023-08-06T10:51:21;24.50;99.90
36186;DHT22;22228;53.222;7.446;2023-08-06T10:53:42;24.50;1.00
36186;DHT22;22228;53.222;7.446;2023-08-06T10:56:12;24.50;99.90
36186;DHT22;22228;53.222;7.446;2023-08-06T10:58:32;24.70;99.90
36186;DHT22;22228;53.222;7.446;2023-08-06T11:00:56;24.90;99.90
36186;DHT22;22228;53.222;7.446;2023-08-06T11:03:17;25.00;99.90
36186;DHT22;22228;53.222;7.446;2023-08-06T11:05:37;25.00;99.90
36186;DHT22;22228;53.222;7.446;2023-08-06T11:07:58;25.00;99.90
36186;DHT22;22228;53.222;7.446;2023-08-06T11:10:19;25.20;99.90
36186;DHT22;22228;53.222;7.446;2023-08-06T11:12:39;25.50;99.90
36186;DHT22;22228;53.222;7.446;2023-08-06T11:15:01;25.80;99.90
36186;DHT22;22228;53.222;7.446;2023-08-06T11:17:22;26.00;99.90
36186;DHT22;22228;53.222;7.446;2023-08-06T11:19:43;26.40;99.90
36186;DHT22;22228;53.222;7.446;2023-08-06T11:22:04;26.20;99.90
36186;DHT22;22228;53.222;7.446;2023-08-06T11:24:25;25.90;99.90
36186;DHT22;22228;53.222;7.446;2023-08-06T11:26:46;26.10;99.90
36186;DHT22;22228;53.222;7.446;2023-08-06T11:29:06;25.80;99.90
36186;DHT22;22228;53.222;7.446;2023-08-06T11:31:27;25.10;99.90
36186;DHT22;22228;53.222;7.446;2023-08-06T11:33:49;24.50;99.90
36186;DHT22;22228;53.222;7.446;2023-08-06T11:36:10;24.30;99.90
36186;DHT22;22228;53.222;7.446;2023-08-06T11:38:31;24.00;99.90
36186;DHT22;22228;53.222;7.446;2023-08-06T11:41:02;23.60;99.90
36186;DHT22;22228;53.222;7.446;2023-08-06T11:43:22;23.30;99.90
36186;DHT22;22228;53.222;7.446;2023-08-06T11:45:42;23.00;99.90
36186;DHT22;22228;53.222;7.446;2023-08-06T11:48:03;22.90;1.00
36186;DHT22;22228;53.222;7.446;2023-08-06T11:50:26;22.80;1.00
36186;DHT22;22228;53.222;7.446;2023-08-06T11:52:46;22.80;1.00
36186;DHT22;22228;53.222;7.446;2023-08-06T11:55:08;22.80;1.00
36186;DHT22;22228;53.222;7.446;2023-08-06T11:57:30;22.90;1.00
36186;DHT22;22228;53.222;7.446;2023-08-06T11:59:54;23.10;1.00
36186;DHT22;22228;53.222;7.446;2023-08-06T12:02:15;23.00;1.00
36186;DHT22;22228;53.222;7.446;2023-08-06T12:05:02;23.00;1.00
36186;DHT22;22228;53.222;7.446;2023-08-06T12:07:30;23.10;1.00
36186;DHT22;22228;53.222;7.446;2023-08-06T12:09:51;23.20;1.00
36186;DHT22;22228;53.222;7.446;2023-08-06T12:12:11;23.10;1.00
36186;DHT22;22228;53.222;7.446;2023-08-06T12:14:32;23.10;1.00
36186;DHT22;22228;53.222;7.446;2023-08-06T12:16:52;23.00;1.00
36186;DHT22;22228;53.222;7.446;2023-08-06T12:19:13;22.80;1.00
36186;DHT22;22228;53.222;7.446;2023-08-06T12:21:34;22.70;1.00
36186;DHT22;22228;53.222;7.446;2023-08-06T12:23:56;22.90;1.00
36186;DHT22;22228;53.222;7.446;2023-08-06T12:26:16;22.90;1.00
36186;DHT22;22228;53.222;7.446;2023-08-06T12:28:37;22.90;1.00
36186;DHT22;22228;53.222;7.446;2023-08-06T12:30:58;23.00;1.00
36186;DHT22;22228;53.222;7.446;2023-08-06T12:33:19;23.10;1.00
36186;DHT22;22228;53.222;7.446;2023-08-06T12:35:39;23.20;1.00
36186;DHT22;22228;53.222;7.446;2023-08-06T12:38:00;23.30;1.00
36186;DHT22;22228;53.222;7.446;2023-08-06T12:40:22;23.10;1.00
36186;DHT22;22228;53.222;7.446;2023-08-06T12:42:42;22.90;1.00
36186;DHT22;22228;53.222;7.446;2023-08-06T12:45:03;24.30;1.00
36186;DHT22;22228;53.222;7.446;2023-08-06T12:47:24;25.60;1.00
36186;DHT22;22228;53.222;7.446;2023-08-06T12:49:45;26.10;99.90
36186;DHT22;22228;53.222;7.446;2023-08-06T12:52:06;27.00;99.90
36186;DHT22;22228;53.222;7.446;2023-08-06T12:54:28;28.30;99.90
36186;DHT22;22228;53.222;7.446;2023-08-06T12:56:50;29.00;99.90
36186;DHT22;22228;53.222;7.446;2023-08-06T12:59:10;29.40;99.90
36186;DHT22;22228;53.222;7.446;2023-08-06T13:01:31;29.50;99.90
36186;DHT22;22228;53.222;7.446;2023-08-06T13:03:52;29.90;99.90
36186;DHT22;22228;53.222;7.446;2023-08-06T13:06:12;30.30;99.90
36186;DHT22;22228;53.222;7.446;2023-08-06T13:08:33;29.00;99.90
36186;DHT22;22228;53.222;7.446;2023-08-06T13:10:53;27.50;99.90
36186;DHT22;22228;53.222;7.446;2023-08-06T13:13:15;26.50;99.90
36186;DHT22;22228;53.222;7.446;2023-08-06T13:15:36;26.80;99.90
36186;DHT22;22228;53.222;7.446;2023-08-06T13:17:56;27.00;99.90
36186;DHT22;22228;53.222;7.446;2023-08-06T13:20:16;27.90;99.90
36186;DHT22;22228;53.222;7.446;2023-08-06T13:22:38;29.30;99.90
36186;DHT22;22228;53.222;7.446;2023-08-06T13:24:59;30.10;99.90
36186;DHT22;22228;53.222;7.446;2023-08-06T13:27:19;31.20;99.90
36186;DHT22;22228;53.222;7.446;2023-08-06T13:29:41;30.80;99.90
36186;DHT22;22228;53.222;7.446;2023-08-06T13:32:02;30.90;99.90
36186;DHT22;22228;53.222;7.446;2023-08-06T13:34:22;30.80;99.90
36186;DHT22;22228;53.222;7.446;2023-08-06T13:36:43;30.80;99.90
36186;DHT22;22228;53.222;7.446;2023-08-06T13:39:03;30.90;99.90
36186;DHT22;22228;53.222;7.446;2023-08-06T13:41:24;30.50;99.90
36186;DHT22;22228;53.222;7.446;2023-08-06T13:43:45;30.00;99.90
36186;DHT22;22228;53.222;7.446;2023-08-06T13:46:07;29.10;99.90
36186;DHT22;22228;53.222;7.446;2023-08-06T13:48:28;28.10;99.90
36186;DHT22;22228;53.222;7.446;2023-08-06T13:50:48;27.80;99.90
36186;DHT22;22228;53.222;7.446;2023-08-06T13:53:09;27.50;99.90
36186;DHT22;22228;53.222;7.446;2023-08-06T13:55:29;27.10;99.90
36186;DHT22;22228;53.222;7.446;2023-08-06T13:57:50;26.70;99.90
36186;DHT22;22228;53.222;7.446;2023-08-06T14:00:12;27.00;99.90
36186;DHT22;22228;53.222;7.446;2023-08-06T14:02:33;27.60;99.90
36186;DHT22;22228;53.222;7.446;2023-08-06T14:04:54;28.10;99.90
36186;DHT22;22228;53.222;7.446;2023-08-06T14:07:15;29.10;99.90
36186;DHT22;22228;53.222;7.446;2023-08-06T14:09:35;29.70;99.90
36186;DHT22;22228;53.222;7.446;2023-08-06T14:11:56;29.50;99.90
36186;DHT22;22228;53.222;7.446;2023-08-06T14:14:17;29.80;99.90
36186;DHT22;22228;53.222;7.446;2023-08-06T14:16:38;30.00;99.90
36186;DHT22;22228;53.222;7.446;2023-08-06T14:19:00;29.70;99.90
36186;DHT22;22228;53.222;7.446;2023-08-06T14:21:20;29.20;99.90
36186;DHT22;22228;53.222;7.446;2023-08-06T14:23:41;28.10;99.90
36186;DHT22;22228;53.222;7.446;2023-08-06T14:26:01;27.20;99.90
36186;DHT22;22228;53.222;7.446;2023-08-06T14:28:22;27.30;99.90
36186;DHT22;22228;53.222;7.446;2023-08-06T14:30:43;28.50;99.90
36186;DHT22;22228;53.222;7.446;2023-08-06T14:33:03;29.00;99.90
36186;DHT22;22228;53.222;7.446;2023-08-06T14:35:25;28.70;99.90
36186;DHT22;22228;53.222;7.446;2023-08-06T14:37:46;29.20;99.90
36186;DHT22;22228;53.222;7.446;2023-08-06T14:40:07;29.80;99.90
36186;DHT22;22228;53.222;7.446;2023-08-06T14:42:28;29.50;99.90
36186;DHT22;22228;53.222;7.446;2023-08-06T14:44:48;29.50;99.90
36186;DHT22;22228;53.222;7.446;2023-08-06T14:47:09;29.50;99.90
36186;DHT22;22228;53.222;7.446;2023-08-06T14:49:29;29.60;99.90
36186;DHT22;22228;53.222;7.446;2023-08-06T14:51:51;30.20;99.90
36186;DHT22;22228;53.222;7.446;2023-08-06T14:54:12;30.30;99.90
36186;DHT22;22228;53.222;7.446;2023-08-06T14:56:32;29.80;99.90
36186;DHT22;22228;53.222;7.446;2023-08-06T14:58:53;29.00;99.90
36186;DHT22;22228;53.222;7.446;2023-08-06T15:01:13;28.50;99.90
36186;DHT22;22228;53.222;7.446;2023-08-06T15:03:34;27.40;99.90
36186;DHT22;22228;53.222;7.446;2023-08-06T15:05:54;26.20;99.90
36186;DHT22;22228;53.222;7.446;2023-08-06T15:08:17;25.70;99.90
36186;DHT22;22228;53.222;7.446;2023-08-06T15:10:37;26.40;99.90
36186;DHT22;22228;53.222;7.446;2023-08-06T15:12:58;26.70;99.90
36186;DHT22;22228;53.222;7.446;2023-08-06T15:15:18;27.40;99.90
36186;DHT22;22228;53.222;7.446;2023-08-06T15:17:39;28.40;99.90
36186;DHT22;22228;53.222;7.446;2023-08-06T15:19:59;28.70;99.90
36186;DHT22;22228;53.222;7.446;2023-08-06T15:22:20;28.80;99.90
36186;DHT22;22228;53.222;7.446;2023-08-06T15:24:42;29.30;99.90
36186;DHT22;22228;53.222;7.446;2023-08-06T15:27:03;29.20;99.90
36186;DHT22;22228;53.222;7.446;2023-08-06T15:29:24;28.60;99.90
36186;DHT22;22228;53.222;7.446;2023-08-06T15:31:44;27.80;99.90
36186;DHT22;22228;53.222;7.446;2023-08-06T15:34:05;26.90;99.90
36186;DHT22;22228;53.222;7.446;2023-08-06T15:36:25;25.40;99.90
36186;DHT22;22228;53.222;7.446;2023-08-06T15:38:45;24.40;99.90
36186;DHT22;22228;53.222;7.446;2023-08-06T15:41:07;23.70;99.90
36186;DHT22;22228;53.222;7.446;2023-08-06T15:43:28;23.30;99.90
36186;DHT22;22228;53.222;7.446;2023-08-06T15:45:48;22.80;99.90
36186;DHT22;22228;53.222;7.446;2023-08-06T15:48:09;22.30;99.90
36186;DHT22;22228;53.222;7.446;2023-08-06T15:50:29;21.90;99.90
36186;DHT22;22228;53.222;7.446;2023-08-06T15:52:50;21.70;8.70
36186;DHT22;22228;53.222;7.446;2023-08-06T15:55:10;21.70;1.00
36186;DHT22;22228;53.222;7.446;2023-08-06T15:57:33;21.70;1.00
36186;DHT22;22228;53.222;7.446;2023-08-06T15:59:53;21.60;1.00
36186;DHT22;22228;53.222;7.446;2023-08-06T16:02:14;21.40;1.00
36186;DHT22;22228;53.222;7.446;2023-08-06T16:04:34;21.30;1.00
36186;DHT22;22228;53.222;7.446;2023-08-06T16:06:55;21.10;1.00
36186;DHT22;22228;53.222;7.446;2023-08-06T16:09:15;21.00;1.00
36186;DHT22;22228;53.222;7.446;2023-08-06T16:11:36;20.70;1.00
36186;DHT22;22228;53.222;7.446;2023-08-06T16:13:58;20.60;1.00
36186;DHT22;22228;53.222;7.446;2023-08-06T16:16:18;20.60;1.00
36186;DHT22;22228;53.222;7.446;2023-08-06T16:18:39;20.50;1.00
36186;DHT22;22228;53.222;7.446;2023-08-06T16:21:00;20.60;1.00
36186;DHT22;22228;53.222;7.446;2023-08-06T16:23:21;20.60;1.00
36186;DHT22;22228;53.222;7.446;2023-08-06T16:25:43;20.70;1.00
36186;DHT22;22228;53.222;7.446;2023-08-06T16:28:06;20.80;1.00
36186;DHT22;22228;53.222;7.446;2023-08-06T16:30:31;20.80;1.00
36186;DHT22;22228;53.222;7.446;2023-08-06T16:32:51;21.00;1.00
36186;DHT22;22228;53.222;7.446;2023-08-06T16:35:12;21.00;1.00
36186;DHT22;22228;53.222;7.446;2023-08-06T16:37:34;20.90;1.00
36186;DHT22;22228;53.222;7.446;2023-08-06T16:39:54;20.80;1.00
36186;DHT22;22228;53.222;7.446;2023-08-06T16:42:15;20.70;1.00
36186;DHT22;22228;53.222;7.446;2023-08-06T16:44:35;20.50;1.00
36186;DHT22;22228;53.222;7.446;2023-08-06T16:46:59;20.50;1.00
36186;DHT22;22228;53.222;7.446;2023-08-06T16:49:19;20.50;1.00
36186;DHT22;22228;53.222;7.446;2023-08-06T16:51:40;20.60;1.00
36186;DHT22;22228;53.222;7.446;2023-08-06T16:54:00;20.70;1.00
36186;DHT22;22228;53.222;7.446;2023-08-06T16:56:21;20.60;1.00
36186;DHT22;22228;53.222;7.446;2023-08-06T16:58:41;20.50;1.00
36186;DHT22;22228;53.222;7.446;2023-08-06T17:01:02;20.40;1.00
36186;DHT22;22228;53.222;7.446;2023-08-06T17:03:25;20.40;1.00
36186;DHT22;22228;53.222;7.446;2023-08-06T17:05:46;20.30;1.00
36186;DHT22;22228;53.222;7.446;2023-08-06T17:08:06;20.30;1.00
36186;DHT22;22228;53.222;7.446;2023-08-06T17:10:29;20.30;1.00
36186;DHT22;22228;53.222;7.446;2023-08-06T17:12:50;20.40;1.00
36186;DHT22;22228;53.222;7.446;2023-08-06T17:15:12;20.20;1.00
36186;DHT22;22228;53.222;7.446;2023-08-06T17:17:32;20.20;1.00
36186;DHT22;22228;53.222;7.446;2023-08-06T17:19:54;20.00;1.00
36186;DHT22;22228;53.222;7.446;2023-08-06T17:22:15;20.00;1.00
36186;DHT22;22228;53.222;7.446;2023-08-06T17:24:36;19.90;1.00
36186;DHT22;22228;53.222;7.446;2023-08-06T17:26:56;20.00;1.00
36186;DHT22;22228;53.222;7.446;2023-08-06T17:29:18;20.00;1.00
36186;DHT22;22228;53.222;7.446;2023-08-06T17:31:38;20.10;1.00
36186;DHT22;22228;53.222;7.446;2023-08-06T17:33:59;20.00;1.00
36186;DHT22;22228;53.222;7.446;2023-08-06T17:36:21;19.70;1.00
36186;DHT22;22228;53.222;7.446;2023-08-06T17:38:41;19.50;1.00
36186;DHT22;22228;53.222;7.446;2023-08-06T17:41:02;19.50;1.00